sensor_id;sensor_type;location;lat;lon;timestamp;temperature;humidity
7970;DHT22;4030;52.362;9.206;2022-09-06T00:00:03;25.40;44.40
7970;DHT22;4030;52.362;9.206;2022-09-06T00:02:32;25.50;44.50
7970;DHT22;4030;52.362;9.206;2022-09-06T00:04:59;25.50;44.60
7970;DHT22;4030;52.362;9.206;2022-09-06T00:07:24;25.60;44.70
7970;DHT22;4030;52.362;9.206;2022-09-06T00:09:50;25.50;44.70
7970;DHT22;4030;52.362;9.206;2022-09-06T00:12:16;25.50;44.80
7970;DHT22;4030;52.362;9.206;2022-09-06T00:46:26;25.10;45.30
7970;DHT22;4030;52.362;9.206;2022-09-06T00:48:56;25.10;45.40
7970;DHT22;4030;52.362;9.206;2022-09-06T00:51:27;25.00;45.50
7970;DHT22;4030;52.362;9.206;2022-09-06T00:53:53;25.20;45.70
7970;DHT22;4030;52.362;9.206;2022-09-06T00:56:19;25.00;45.60
7970;DHT22;4030;52.362;9.206;2022-09-06T00:58:46;25.00;45.70
7970;DHT22;4030;52.362;9.206;2022-09-06T01:01:12;25.10;45.80
7970;DHT22;4030;52.362;9.206;2022-09-06T01:03:38;25.10;45.80
7970;DHT22;4030;52.362;9.206;2022-09-06T01:09:07;24.90;46.00
7970;DHT22;4030;52.362;9.206;2022-09-06T01:18:16;24.70;46.00
7970;DHT22;4030;52.362;9.206;2022-09-06T01:20:33;25.00;46.40
7970;DHT22;4030;52.362;9.206;2022-09-06T01:35:13;24.80;46.70
7970;DHT22;4030;52.362;9.206;2022-09-06T01:37:40;24.80;46.90
7970;DHT22;4030;52.362;9.206;2022-09-06T01:40:06;24.80;46.90
7970;DHT22;4030;52.362;9.206;2022-09-06T01:42:34;24.60;46.90
7970;DHT22;4030;52.362;9.206;2022-09-06T01:45:08;24.80;47.20
7970;DHT22;4030;52.362;9.206;2022-09-06T01:47:53;24.60;47.10
7970;DHT22;4030;52.362;9.206;2022-09-06T01:56:31;24.60;47.40
7970;DHT22;4030;52.362;9.206;2022-09-06T01:59:17;24.60;47.40
7970;DHT22;4030;52.362;9.206;2022-09-06T02:02:18;24.70;47.70
7970;DHT22;4030;52.362;9.206;2022-09-06T02:04:56;24.60;47.60
7970;DHT22;4030;52.362;9.206;2022-09-06T02:07:28;24.40;47.50
7970;DHT22;4030;52.362;9.206;2022-09-06T02:10:06;24.60;47.80
7970;DHT22;4030;52.362;9.206;2022-09-06T02:12:38;24.70;47.80
7970;DHT22;4030;52.362;9.206;2022-09-06T02:15:13;24.60;47.90
7970;DHT22;4030;52.362;9.206;2022-09-06T02:17:57;24.70;48.00
7970;DHT22;4030;52.362;9.206;2022-09-06T02:20:29;24.60;48.00
7970;DHT22;4030;52.362;9.206;2022-09-06T02:22:56;24.60;48.10
7970;DHT22;4030;52.362;9.206;2022-09-06T02:25:29;24.50;48.10
7970;DHT22;4030;52.362;9.206;2022-09-06T02:27:58;24.40;48.00
7970;DHT22;4030;52.362;9.206;2022-09-06T02:30:24;24.40;48.10
7970;DHT22;4030;52.362;9.206;2022-09-06T02:32:56;24.40;48.20
7970;DHT22;4030;52.362;9.206;2022-09-06T02:35:24;24.40;48.20
7970;DHT22;4030;52.362;9.206;2022-09-06T02:37:49;24.30;48.10
7970;DHT22;4030;52.362;9.206;2022-09-06T02:40:16;24.50;48.40
7970;DHT22;4030;52.362;9.206;2022-09-06T02:42:42;24.40;48.30
7970;DHT22;4030;52.362;9.206;2022-09-06T02:45:08;24.40;48.40
7970;DHT22;4030;52.362;9.206;2022-09-06T02:47:34;24.40;48.40
7970;DHT22;4030;52.362;9.206;2022-09-06T03:02:10;24.40;48.70
7970;DHT22;4030;52.362;9.206;2022-09-06T03:28:57;24.00;48.80
7970;DHT22;4030;52.362;9.206;2022-09-06T03:48:28;24.00;49.20
7970;DHT22;4030;52.362;9.206;2022-09-06T03:50:55;23.80;49.10
7970;DHT22;4030;52.362;9.206;2022-09-06T03:53:23;23.80;49.10
7970;DHT22;4030;52.362;9.206;2022-09-06T03:55:51;24.30;49.50
7970;DHT22;4030;52.362;9.206;2022-09-06T03:58:20;24.00;49.30
7970;DHT22;4030;52.362;9.206;2022-09-06T04:00:46;24.10;49.40
7970;DHT22;4030;52.362;9.206;2022-09-06T04:03:13;23.90;49.30
7970;DHT22;4030;52.362;9.206;2022-09-06T04:05:39;23.90;49.40
7970;DHT22;4030;52.362;9.206;2022-09-06T04:08:05;23.80;49.30
7970;DHT22;4030;52.362;9.206;2022-09-06T04:10:31;23.70;49.30
7970;DHT22;4030;52.362;9.206;2022-09-06T04:12:57;23.80;49.40
7970;DHT22;4030;52.362;9.206;2022-09-06T04:15:22;24.00;49.60
7970;DHT22;4030;52.362;9.206;2022-09-06T04:20:15;23.60;49.30
7970;DHT22;4030;52.362;9.206;2022-09-06T04:22:41;23.80;49.50
7970;DHT22;4030;52.362;9.206;2022-09-06T04:25:07;23.80;49.60
7970;DHT22;4030;52.362;9.206;2022-09-06T04:27:33;23.70;49.50
7970;DHT22;4030;52.362;9.206;2022-09-06T04:29:59;23.80;49.60
7970;DHT22;4030;52.362;9.206;2022-09-06T04:32:25;23.70;49.50
7970;DHT22;4030;52.362;9.206;2022-09-06T04:39:45;23.60;49.50
7970;DHT22;4030;52.362;9.206;2022-09-06T04:42:11;23.70;49.60
7970;DHT22;4030;52.362;9.206;2022-09-06T04:44:37;23.70;49.60
7970;DHT22;4030;52.362;9.206;2022-09-06T04:47:12;23.60;49.50
7970;DHT22;4030;52.362;9.206;2022-09-06T04:49:40;23.60;49.40
7970;DHT22;4030;52.362;9.206;2022-09-06T04:52:06;23.50;49.40
7970;DHT22;4030;52.362;9.206;2022-09-06T04:54:32;23.60;49.60
7970;DHT22;4030;52.362;9.206;2022-09-06T04:56:58;23.40;49.40
7970;DHT22;4030;52.362;9.206;2022-09-06T04:59:23;23.30;49.30
7970;DHT22;4030;52.362;9.206;2022-09-06T05:23:44;23.40;49.30
7970;DHT22;4030;52.362;9.206;2022-09-06T05:26:10;23.30;49.20
7970;DHT22;4030;52.362;9.206;2022-09-06T05:31:06;23.30;49.20
7970;DHT22;4030;52.362;9.206;2022-09-06T05:33:37;23.40;49.30
7970;DHT22;4030;52.362;9.206;2022-09-06T05:36:05;23.30;49.20
7970;DHT22;4030;52.362;9.206;2022-09-06T05:38:31;23.30;49.20
7970;DHT22;4030;52.362;9.206;2022-09-06T05:40:57;23.00;49.00
7970;DHT22;4030;52.362;9.206;2022-09-06T05:43:23;23.30;49.20
7970;DHT22;4030;52.362;9.206;2022-09-06T05:45:49;23.20;49.10
7970;DHT22;4030;52.362;9.206;2022-09-06T05:48:15;23.10;49.10
7970;DHT22;4030;52.362;9.206;2022-09-06T06:12:35;23.20;49.20
7970;DHT22;4030;52.362;9.206;2022-09-06T06:22:22;23.10;49.60
7970;DHT22;4030;52.362;9.206;2022-09-06T06:24:48;23.00;49.70
7970;DHT22;4030;52.362;9.206;2022-09-06T06:44:17;23.00;50.30
7970;DHT22;4030;52.362;9.206;2022-09-06T06:49:08;23.00;50.60
7970;DHT22;4030;52.362;9.206;2022-09-06T06:54:04;22.70;50.70
7970;DHT22;4030;52.362;9.206;2022-09-06T06:59:00;22.90;51.00
7970;DHT22;4030;52.362;9.206;2022-09-06T07:01:29;22.70;50.90
7970;DHT22;4030;52.362;9.206;2022-09-06T07:03:56;22.80;51.00
7970;DHT22;4030;52.362;9.206;2022-09-06T07:06:23;22.80;51.00
7970;DHT22;4030;52.362;9.206;2022-09-06T07:08:49;22.90;51.20
7970;DHT22;4030;52.362;9.206;2022-09-06T07:11:17;22.80;51.20
7970;DHT22;4030;52.362;9.206;2022-09-06T07:16:22;22.90;51.40
7970;DHT22;4030;52.362;9.206;2022-09-06T07:18:52;22.90;51.50
7970;DHT22;4030;52.362;9.206;2022-09-06T07:21:23;22.80;51.30
7970;DHT22;4030;52.362;9.206;2022-09-06T07:26:20;22.70;51.20
7970;DHT22;4030;52.362;9.206;2022-09-06T07:31:16;22.60;51.10
7970;DHT22;4030;52.362;9.206;2022-09-06T07:36:08;22.80;51.10
7970;DHT22;4030;52.362;9.206;2022-09-06T07:38:35;22.80;51.10
7970;DHT22;4030;52.362;9.206;2022-09-06T07:41:06;22.90;51.30
7970;DHT22;4030;52.362;9.206;2022-09-06T07:43:33;22.70;51.20
7970;DHT22;4030;52.362;9.206;2022-09-06T07:46:10;22.70;51.40
7970;DHT22;4030;52.362;9.206;2022-09-06T07:48:41;22.70;51.60
7970;DHT22;4030;52.362;9.206;2022-09-06T07:51:11;22.70;52.10
7970;DHT22;4030;52.362;9.206;2022-09-06T07:53:39;22.70;52.40
7970;DHT22;4030;52.362;9.206;2022-09-06T07:56:08;22.80;52.60
7970;DHT22;4030;52.362;9.206;2022-09-06T07:58:35;22.70;52.60
7970;DHT22;4030;52.362;9.206;2022-09-06T08:01:32;22.80;52.80
7970;DHT22;4030;52.362;9.206;2022-09-06T08:04:06;22.90;53.00
7970;DHT22;4030;52.362;9.206;2022-09-06T08:06:38;23.00;53.20
7970;DHT22;4030;52.362;9.206;2022-09-06T08:09:07;22.90;53.20
7970;DHT22;4030;52.362;9.206;2022-09-06T08:11:36;22.80;53.20
7970;DHT22;4030;52.362;9.206;2022-09-06T08:14:04;22.70;53.10
7970;DHT22;4030;52.362;9.206;2022-09-06T08:16:33;22.90;53.40
7970;DHT22;4030;52.362;9.206;2022-09-06T08:19:01;22.90;53.40
7970;DHT22;4030;52.362;9.206;2022-09-06T08:21:30;22.80;53.30
7970;DHT22;4030;52.362;9.206;2022-09-06T08:23:58;22.90;53.50
7970;DHT22;4030;52.362;9.206;2022-09-06T08:26:27;22.90;53.40
7970;DHT22;4030;52.362;9.206;2022-09-06T08:28:55;23.00;53.60
7970;DHT22;4030;52.362;9.206;2022-09-06T08:31:26;22.90;53.50
7970;DHT22;4030;52.362;9.206;2022-09-06T08:33:53;22.90;53.50
7970;DHT22;4030;52.362;9.206;2022-09-06T08:36:19;22.90;53.50
7970;DHT22;4030;52.362;9.206;2022-09-06T08:38:46;22.90;53.60
7970;DHT22;4030;52.362;9.206;2022-09-06T08:43:53;22.70;53.70
7970;DHT22;4030;52.362;9.206;2022-09-06T08:46:41;22.90;54.20
7970;DHT22;4030;52.362;9.206;2022-09-06T08:51:55;22.90;54.30
7970;DHT22;4030;52.362;9.206;2022-09-06T09:00:04;22.90;54.10
7970;DHT22;4030;52.362;9.206;2022-09-06T09:03:06;22.80;53.90
7970;DHT22;4030;52.362;9.206;2022-09-06T09:05:38;22.80;53.80
7970;DHT22;4030;52.362;9.206;2022-09-06T09:08:38;23.00;54.00
7970;DHT22;4030;52.362;9.206;2022-09-06T09:11:14;23.10;53.70
7970;DHT22;4030;52.362;9.206;2022-09-06T09:19:00;23.10;52.30
7970;DHT22;4030;52.362;9.206;2022-09-06T09:21:30;23.20;53.00
7970;DHT22;4030;52.362;9.206;2022-09-06T09:24:05;23.20;52.90
7970;DHT22;4030;52.362;9.206;2022-09-06T09:26:55;23.20;53.20
7970;DHT22;4030;52.362;9.206;2022-09-06T09:29:23;23.30;53.20
7970;DHT22;4030;52.362;9.206;2022-09-06T09:31:52;23.20;53.30
7970;DHT22;4030;52.362;9.206;2022-09-06T09:39:37;23.20;53.10
7970;DHT22;4030;52.362;9.206;2022-09-06T09:42:04;23.30;52.90
7970;DHT22;4030;52.362;9.206;2022-09-06T09:44:30;23.30;53.10
7970;DHT22;4030;52.362;9.206;2022-09-06T09:52:10;23.40;53.10
7970;DHT22;4030;52.362;9.206;2022-09-06T09:54:44;23.30;52.90
7970;DHT22;4030;52.362;9.206;2022-09-06T09:57:13;23.40;53.20
7970;DHT22;4030;52.362;9.206;2022-09-06T09:59:43;23.40;52.90
7970;DHT22;4030;52.362;9.206;2022-09-06T10:02:30;23.30;52.10
7970;DHT22;4030;52.362;9.206;2022-09-06T10:07:44;23.50;53.00
7970;DHT22;4030;52.362;9.206;2022-09-06T10:10:20;23.50;53.70
7970;DHT22;4030;52.362;9.206;2022-09-06T10:15:46;23.30;54.20
7970;DHT22;4030;52.362;9.206;2022-09-06T10:18:33;23.60;54.60
7970;DHT22;4030;52.362;9.206;2022-09-06T10:21:13;23.60;54.80
7970;DHT22;4030;52.362;9.206;2022-09-06T10:26:58;23.80;55.30
7970;DHT22;4030;52.362;9.206;2022-09-06T10:29:48;24.20;55.70
7970;DHT22;4030;52.362;9.206;2022-09-06T10:35:31;24.40;55.80
7970;DHT22;4030;52.362;9.206;2022-09-06T10:38:24;24.70;56.00
7970;DHT22;4030;52.362;9.206;2022-09-06T10:41:31;24.60;55.80
7970;DHT22;4030;52.362;9.206;2022-09-06T10:46:47;25.10;55.70
7970;DHT22;4030;52.362;9.206;2022-09-06T10:49:18;25.30;55.70
7970;DHT22;4030;52.362;9.206;2022-09-06T10:51:52;25.50;55.70
7970;DHT22;4030;52.362;9.206;2022-09-06T10:54:22;25.70;55.70
7970;DHT22;4030;52.362;9.206;2022-09-06T10:59:53;26.00;55.20
7970;DHT22;4030;52.362;9.206;2022-09-06T11:05:35;26.30;54.60
7970;DHT22;4030;52.362;9.206;2022-09-06T11:11:05;26.70;54.20
7970;DHT22;4030;52.362;9.206;2022-09-06T11:16:22;27.00;53.50
7970;DHT22;4030;52.362;9.206;2022-09-06T11:19:10;27.10;53.20
7970;DHT22;4030;52.362;9.206;2022-09-06T11:27:39;27.60;52.20
7970;DHT22;4030;52.362;9.206;2022-09-06T11:30:13;27.80;51.90
7970;DHT22;4030;52.362;9.206;2022-09-06T11:32:49;27.90;51.60
7970;DHT22;4030;52.362;9.206;2022-09-06T11:35:27;28.10;51.40
7970;DHT22;4030;52.362;9.206;2022-09-06T11:40:45;28.40;50.80
7970;DHT22;4030;52.362;9.206;2022-09-06T11:53:20;29.10;49.60
7970;DHT22;4030;52.362;9.206;2022-09-06T11:55:51;29.20;49.40
7970;DHT22;4030;52.362;9.206;2022-09-06T12:08:44;29.70;47.90
7970;DHT22;4030;52.362;9.206;2022-09-06T12:19:56;30.30;46.80
7970;DHT22;4030;52.362;9.206;2022-09-06T12:25:04;30.60;46.30
7970;DHT22;4030;52.362;9.206;2022-09-06T12:30:10;30.80;45.90
7970;DHT22;4030;52.362;9.206;2022-09-06T12:32:48;30.90;45.60
7970;DHT22;4030;52.362;9.206;2022-09-06T12:35:28;31.00;45.30
7970;DHT22;4030;52.362;9.206;2022-09-06T12:38:03;31.10;45.00
7970;DHT22;4030;52.362;9.206;2022-09-06T12:40:34;31.20;44.90
7970;DHT22;4030;52.362;9.206;2022-09-06T12:43:03;31.40;44.80
7970;DHT22;4030;52.362;9.206;2022-09-06T12:45:29;31.50;44.60
7970;DHT22;4030;52.362;9.206;2022-09-06T12:48:14;31.60;44.50
7970;DHT22;4030;52.362;9.206;2022-09-06T12:51:18;31.70;44.30
7970;DHT22;4030;52.362;9.206;2022-09-06T12:53:57;31.80;44.10
7970;DHT22;4030;52.362;9.206;2022-09-06T12:56:25;31.90;43.90
7970;DHT22;4030;52.362;9.206;2022-09-06T12:59:13;32.00;43.70
7970;DHT22;4030;52.362;9.206;2022-09-06T13:04:36;32.00;43.30
7970;DHT22;4030;52.362;9.206;2022-09-06T13:07:12;32.30;43.10
7970;DHT22;4030;52.362;9.206;2022-09-06T13:09:42;32.40;42.90
7970;DHT22;4030;52.362;9.206;2022-09-06T13:12:33;32.50;42.80
7970;DHT22;4030;52.362;9.206;2022-09-06T13:15:21;32.60;42.60
7970;DHT22;4030;52.362;9.206;2022-09-06T13:18:37;32.70;42.30
7970;DHT22;4030;52.362;9.206;2022-09-06T13:20:57;32.80;42.20
7970;DHT22;4030;52.362;9.206;2022-09-06T13:23:24;32.90;41.90
7970;DHT22;4030;52.362;9.206;2022-09-06T13:25:51;33.00;41.80
7970;DHT22;4030;52.362;9.206;2022-09-06T13:28:29;33.10;41.70
7970;DHT22;4030;52.362;9.206;2022-09-06T13:31:11;33.20;41.60
7970;DHT22;4030;52.362;9.206;2022-09-06T13:33:43;33.20;40.40
7970;DHT22;4030;52.362;9.206;2022-09-06T13:41:05;33.00;37.80
7970;DHT22;4030;52.362;9.206;2022-09-06T13:43:41;33.00;37.60
7970;DHT22;4030;52.362;9.206;2022-09-06T13:46:10;33.00;37.50
7970;DHT22;4030;52.362;9.206;2022-09-06T13:48:36;32.90;37.60
7970;DHT22;4030;52.362;9.206;2022-09-06T13:51:05;32.90;37.50
7970;DHT22;4030;52.362;9.206;2022-09-06T13:53:32;32.90;37.50
7970;DHT22;4030;52.362;9.206;2022-09-06T13:55:58;32.80;37.60
7970;DHT22;4030;52.362;9.206;2022-09-06T13:58:24;32.80;37.50
7970;DHT22;4030;52.362;9.206;2022-09-06T14:00:52;32.80;37.70
7970;DHT22;4030;52.362;9.206;2022-09-06T14:03:24;32.70;37.60
7970;DHT22;4030;52.362;9.206;2022-09-06T14:05:51;32.70;37.40
7970;DHT22;4030;52.362;9.206;2022-09-06T14:08:17;32.70;38.30
7970;DHT22;4030;52.362;9.206;2022-09-06T14:10:43;32.60;38.00
7970;DHT22;4030;52.362;9.206;2022-09-06T14:13:15;32.60;37.70
7970;DHT22;4030;52.362;9.206;2022-09-06T14:20:34;32.60;38.00
7970;DHT22;4030;52.362;9.206;2022-09-06T14:23:00;32.50;37.60
7970;DHT22;4030;52.362;9.206;2022-09-06T14:25:26;32.50;37.70
7970;DHT22;4030;52.362;9.206;2022-09-06T14:27:52;32.50;37.80
7970;DHT22;4030;52.362;9.206;2022-09-06T14:30:18;32.50;37.60
7970;DHT22;4030;52.362;9.206;2022-09-06T14:32:44;32.50;37.70
7970;DHT22;4030;52.362;9.206;2022-09-06T14:35:11;32.40;37.70
7970;DHT22;4030;52.362;9.206;2022-09-06T14:37:37;32.40;37.60
7970;DHT22;4030;52.362;9.206;2022-09-06T14:40:03;32.40;37.50
7970;DHT22;4030;52.362;9.206;2022-09-06T14:42:29;32.40;37.60
7970;DHT22;4030;52.362;9.206;2022-09-06T14:44:55;32.30;37.50
7970;DHT22;4030;52.362;9.206;2022-09-06T14:47:21;32.30;37.80
7970;DHT22;4030;52.362;9.206;2022-09-06T14:52:12;32.30;37.90
7970;DHT22;4030;52.362;9.206;2022-09-06T14:54:38;32.30;37.90
7970;DHT22;4030;52.362;9.206;2022-09-06T14:57:04;32.30;37.90
7970;DHT22;4030;52.362;9.206;2022-09-06T14:59:30;32.20;37.90
7970;DHT22;4030;52.362;9.206;2022-09-06T15:01:56;32.20;37.90
7970;DHT22;4030;52.362;9.206;2022-09-06T15:04:22;32.20;37.90
7970;DHT22;4030;52.362;9.206;2022-09-06T15:06:47;32.20;38.00
7970;DHT22;4030;52.362;9.206;2022-09-06T15:09:14;32.20;37.70
7970;DHT22;4030;52.362;9.206;2022-09-06T15:11:46;32.10;37.80
7970;DHT22;4030;52.362;9.206;2022-09-06T15:14:19;32.10;37.60
7970;DHT22;4030;52.362;9.206;2022-09-06T15:16:48;32.10;37.60
7970;DHT22;4030;52.362;9.206;2022-09-06T15:19:15;32.10;37.50
7970;DHT22;4030;52.362;9.206;2022-09-06T15:21:41;32.30;37.70
7970;DHT22;4030;52.362;9.206;2022-09-06T15:24:07;32.10;37.80
7970;DHT22;4030;52.362;9.206;2022-09-06T15:26:33;32.00;37.80
7970;DHT22;4030;52.362;9.206;2022-09-06T15:29:01;32.00;37.80
7970;DHT22;4030;52.362;9.206;2022-09-06T15:33:54;31.90;37.90
7970;DHT22;4030;52.362;9.206;2022-09-06T15:36:20;31.90;37.70
7970;DHT22;4030;52.362;9.206;2022-09-06T15:38:50;31.80;37.70
7970;DHT22;4030;52.362;9.206;2022-09-06T15:41:24;31.70;37.60
7970;DHT22;4030;52.362;9.206;2022-09-06T15:43:59;31.70;37.60
7970;DHT22;4030;52.362;9.206;2022-09-06T15:49:02;31.80;37.70
7970;DHT22;4030;52.362;9.206;2022-09-06T15:51:32;31.60;37.70
7970;DHT22;4030;52.362;9.206;2022-09-06T15:53:59;31.60;37.80
7970;DHT22;4030;52.362;9.206;2022-09-06T15:56:25;31.60;37.70
7970;DHT22;4030;52.362;9.206;2022-09-06T15:58:50;31.60;37.70
7970;DHT22;4030;52.362;9.206;2022-09-06T16:01:18;31.50;37.80
7970;DHT22;4030;52.362;9.206;2022-09-06T16:03:47;31.50;37.90
7970;DHT22;4030;52.362;9.206;2022-09-06T16:06:17;31.40;38.00
7970;DHT22;4030;52.362;9.206;2022-09-06T16:08:48;31.40;38.10
7970;DHT22;4030;52.362;9.206;2022-09-06T16:11:16;31.30;38.10
7970;DHT22;4030;52.362;9.206;2022-09-06T16:13:44;31.30;38.10
7970;DHT22;4030;52.362;9.206;2022-09-06T16:16:12;31.20;38.10
7970;DHT22;4030;52.362;9.206;2022-09-06T16:18:41;31.20;38.00
7970;DHT22;4030;52.362;9.206;2022-09-06T16:21:22;31.20;38.20
7970;DHT22;4030;52.362;9.206;2022-09-06T16:23:58;31.10;38.20
7970;DHT22;4030;52.362;9.206;2022-09-06T16:26:33;31.00;38.30
7970;DHT22;4030;52.362;9.206;2022-09-06T16:29:05;30.90;38.40
7970;DHT22;4030;52.362;9.206;2022-09-06T16:31:32;30.90;38.70
7970;DHT22;4030;52.362;9.206;2022-09-06T16:34:00;30.80;38.70
7970;DHT22;4030;52.362;9.206;2022-09-06T16:36:27;30.80;38.60
7970;DHT22;4030;52.362;9.206;2022-09-06T16:38:53;30.80;38.70
7970;DHT22;4030;52.362;9.206;2022-09-06T16:43:50;30.60;38.80
7970;DHT22;4030;52.362;9.206;2022-09-06T16:46:21;30.60;38.80
7970;DHT22;4030;52.362;9.206;2022-09-06T16:48:52;30.60;38.90
7970;DHT22;4030;52.362;9.206;2022-09-06T16:51:23;30.60;39.10
7970;DHT22;4030;52.362;9.206;2022-09-06T16:53:50;30.50;39.10
7970;DHT22;4030;52.362;9.206;2022-09-06T16:56:19;30.40;39.10
7970;DHT22;4030;52.362;9.206;2022-09-06T16:58:51;30.40;39.30
7970;DHT22;4030;52.362;9.206;2022-09-06T17:01:19;30.40;39.40
7970;DHT22;4030;52.362;9.206;2022-09-06T17:03:45;30.30;39.50
7970;DHT22;4030;52.362;9.206;2022-09-06T17:06:12;30.20;39.60
7970;DHT22;4030;52.362;9.206;2022-09-06T17:08:38;30.20;39.70
7970;DHT22;4030;52.362;9.206;2022-09-06T17:11:06;30.00;39.70
7970;DHT22;4030;52.362;9.206;2022-09-06T17:13:34;30.10;39.80
7970;DHT22;4030;52.362;9.206;2022-09-06T17:16:00;30.00;39.90
7970;DHT22;4030;52.362;9.206;2022-09-06T17:18:45;30.00;40.20
7970;DHT22;4030;52.362;9.206;2022-09-06T17:21:11;29.90;40.10
7970;DHT22;4030;52.362;9.206;2022-09-06T17:26:04;29.80;40.40
7970;DHT22;4030;52.362;9.206;2022-09-06T17:28:34;29.70;40.50
7970;DHT22;4030;52.362;9.206;2022-09-06T17:31:02;29.60;40.70
7970;DHT22;4030;52.362;9.206;2022-09-06T17:33:29;29.60;40.80
7970;DHT22;4030;52.362;9.206;2022-09-06T17:36:20;29.60;40.90
7970;DHT22;4030;52.362;9.206;2022-09-06T17:38:49;29.50;41.10
7970;DHT22;4030;52.362;9.206;2022-09-06T17:41:31;29.40;41.20
7970;DHT22;4030;52.362;9.206;2022-09-06T17:44:20;29.40;41.50
7970;DHT22;4030;52.362;9.206;2022-09-06T17:46:49;29.20;41.80
7970;DHT22;4030;52.362;9.206;2022-09-06T17:49:15;29.40;42.20
7970;DHT22;4030;52.362;9.206;2022-09-06T17:51:42;29.20;42.30
7970;DHT22;4030;52.362;9.206;2022-09-06T17:56:37;29.10;42.80
7970;DHT22;4030;52.362;9.206;2022-09-06T17:59:05;29.00;43.00
7970;DHT22;4030;52.362;9.206;2022-09-06T18:01:34;28.90;43.20
7970;DHT22;4030;52.362;9.206;2022-09-06T18:04:01;28.70;43.30
7970;DHT22;4030;52.362;9.206;2022-09-06T18:06:29;28.80;43.50
7970;DHT22;4030;52.362;9.206;2022-09-06T18:09:00;28.70;43.80
7970;DHT22;4030;52.362;9.206;2022-09-06T18:11:32;28.70;43.90
7970;DHT22;4030;52.362;9.206;2022-09-06T18:14:00;28.60;44.10
7970;DHT22;4030;52.362;9.206;2022-09-06T18:16:28;28.50;44.20
7970;DHT22;4030;52.362;9.206;2022-09-06T18:18:56;28.50;44.40
7970;DHT22;4030;52.362;9.206;2022-09-06T18:21:24;28.20;44.10
7970;DHT22;4030;52.362;9.206;2022-09-06T18:23:52;28.20;44.30
7970;DHT22;4030;52.362;9.206;2022-09-06T18:31:13;28.30;44.80
7970;DHT22;4030;52.362;9.206;2022-09-06T18:33:41;28.10;44.80
7970;DHT22;4030;52.362;9.206;2022-09-06T18:36:09;28.20;44.90
7970;DHT22;4030;52.362;9.206;2022-09-06T18:38:37;28.20;45.10
7970;DHT22;4030;52.362;9.206;2022-09-06T18:41:06;28.10;45.00
7970;DHT22;4030;52.362;9.206;2022-09-06T18:43:38;28.10;45.10
7970;DHT22;4030;52.362;9.206;2022-09-06T18:46:11;28.00;45.10
7970;DHT22;4030;52.362;9.206;2022-09-06T18:48:38;28.00;45.20
7970;DHT22;4030;52.362;9.206;2022-09-06T18:53:31;27.70;45.20
7970;DHT22;4030;52.362;9.206;2022-09-06T18:55:58;27.90;45.30
7970;DHT22;4030;52.362;9.206;2022-09-06T19:00:50;27.80;45.40
7970;DHT22;4030;52.362;9.206;2022-09-06T19:03:16;27.80;45.40
7970;DHT22;4030;52.362;9.206;2022-09-06T19:05:42;27.80;45.50
7970;DHT22;4030;52.362;9.206;2022-09-06T19:08:08;27.70;45.40
7970;DHT22;4030;52.362;9.206;2022-09-06T19:20:19;27.60;45.70
7970;DHT22;4030;52.362;9.206;2022-09-06T19:22:48;27.50;45.70
7970;DHT22;4030;52.362;9.206;2022-09-06T19:25:15;27.40;45.70
7970;DHT22;4030;52.362;9.206;2022-09-06T19:27:41;27.40;45.80
7970;DHT22;4030;52.362;9.206;2022-09-06T19:30:08;27.40;45.90
7970;DHT22;4030;52.362;9.206;2022-09-06T19:32:34;27.30;45.90
7970;DHT22;4030;52.362;9.206;2022-09-06T19:35:01;27.20;46.00
7970;DHT22;4030;52.362;9.206;2022-09-06T19:37:28;27.20;46.00
7970;DHT22;4030;52.362;9.206;2022-09-06T19:39:54;26.90;45.90
7970;DHT22;4030;52.362;9.206;2022-09-06T19:42:20;27.10;46.10
7970;DHT22;4030;52.362;9.206;2022-09-06T19:44:46;27.00;46.10
7970;DHT22;4030;52.362;9.206;2022-09-06T19:47:11;27.10;46.30
7970;DHT22;4030;52.362;9.206;2022-09-06T19:49:37;27.10;46.30
7970;DHT22;4030;52.362;9.206;2022-09-06T19:52:04;26.90;46.30
7970;DHT22;4030;52.362;9.206;2022-09-06T19:54:35;26.90;46.40
7970;DHT22;4030;52.362;9.206;2022-09-06T20:01:54;26.70;46.60
7970;DHT22;4030;52.362;9.206;2022-09-06T20:04:20;26.60;46.70
7970;DHT22;4030;52.362;9.206;2022-09-06T20:06:46;26.80;46.90
7970;DHT22;4030;52.362;9.206;2022-09-06T20:09:12;26.60;46.90
7970;DHT22;4030;52.362;9.206;2022-09-06T20:11:40;26.50;46.90
7970;DHT22;4030;52.362;9.206;2022-09-06T20:14:08;26.60;47.10
7970;DHT22;4030;52.362;9.206;2022-09-06T20:16:34;26.60;47.10
7970;DHT22;4030;52.362;9.206;2022-09-06T20:21:27;26.50;47.20
7970;DHT22;4030;52.362;9.206;2022-09-06T20:23:54;26.20;47.10
7970;DHT22;4030;52.362;9.206;2022-09-06T20:26:22;26.30;47.30
7970;DHT22;4030;52.362;9.206;2022-09-06T20:28:59;26.30;47.30
7970;DHT22;4030;52.362;9.206;2022-09-06T20:31:28;26.20;47.30
7970;DHT22;4030;52.362;9.206;2022-09-06T20:33:56;26.20;47.40
7970;DHT22;4030;52.362;9.206;2022-09-06T20:38:49;26.20;47.60
7970;DHT22;4030;52.362;9.206;2022-09-06T20:41:20;26.10;47.60
7970;DHT22;4030;52.362;9.206;2022-09-06T20:43:52;26.10;47.70
7970;DHT22;4030;52.362;9.206;2022-09-06T20:46:24;26.00;47.70
7970;DHT22;4030;52.362;9.206;2022-09-06T20:48:56;26.20;47.80
7970;DHT22;4030;52.362;9.206;2022-09-06T20:53:55;26.00;47.80
7970;DHT22;4030;52.362;9.206;2022-09-06T20:56:24;25.90;47.90
7970;DHT22;4030;52.362;9.206;2022-09-06T20:58:55;25.80;47.80
7970;DHT22;4030;52.362;9.206;2022-09-06T21:01:25;25.80;47.90
7970;DHT22;4030;52.362;9.206;2022-09-06T21:03:54;25.80;48.00
7970;DHT22;4030;52.362;9.206;2022-09-06T21:06:22;25.90;48.10
7970;DHT22;4030;52.362;9.206;2022-09-06T21:08:49;25.80;48.10
7970;DHT22;4030;52.362;9.206;2022-09-06T21:11:15;25.70;48.10
7970;DHT22;4030;52.362;9.206;2022-09-06T21:13:41;25.50;48.00
7970;DHT22;4030;52.362;9.206;2022-09-06T21:18:34;25.70;48.30
7970;DHT22;4030;52.362;9.206;2022-09-06T21:21:01;25.60;48.20
7970;DHT22;4030;52.362;9.206;2022-09-06T21:23:29;25.60;48.20
7970;DHT22;4030;52.362;9.206;2022-09-06T21:25:59;25.60;48.30
7970;DHT22;4030;52.362;9.206;2022-09-06T21:28:28;25.50;48.20
7970;DHT22;4030;52.362;9.206;2022-09-06T21:31:04;25.50;48.30
7970;DHT22;4030;52.362;9.206;2022-09-06T21:33:38;25.40;48.30
7970;DHT22;4030;52.362;9.206;2022-09-06T21:36:18;25.40;48.40
7970;DHT22;4030;52.362;9.206;2022-09-06T21:38:54;25.50;48.40
7970;DHT22;4030;52.362;9.206;2022-09-06T21:41:22;25.40;48.40
7970;DHT22;4030;52.362;9.206;2022-09-06T21:43:56;25.30;48.40
7970;DHT22;4030;52.362;9.206;2022-09-06T21:46:24;25.30;48.40
7970;DHT22;4030;52.362;9.206;2022-09-06T21:48:53;25.30;48.50
7970;DHT22;4030;52.362;9.206;2022-09-06T21:51:24;25.20;48.40
7970;DHT22;4030;52.362;9.206;2022-09-06T21:53:53;25.20;48.50
7970;DHT22;4030;52.362;9.206;2022-09-06T21:58:52;25.20;48.70
7970;DHT22;4030;52.362;9.206;2022-09-06T22:01:23;25.00;48.60
7970;DHT22;4030;52.362;9.206;2022-09-06T22:03:49;25.30;48.80
7970;DHT22;4030;52.362;9.206;2022-09-06T22:06:27;25.10;48.70
7970;DHT22;4030;52.362;9.206;2022-09-06T22:08:55;25.10;48.80
7970;DHT22;4030;52.362;9.206;2022-09-06T22:11:30;24.90;48.70
7970;DHT22;4030;52.362;9.206;2022-09-06T22:13:59;25.00;48.80
7970;DHT22;4030;52.362;9.206;2022-09-06T22:18:52;24.80;48.80
7970;DHT22;4030;52.362;9.206;2022-09-06T22:21:19;24.80;48.90
7970;DHT22;4030;52.362;9.206;2022-09-06T22:23:53;24.90;49.00
7970;DHT22;4030;52.362;9.206;2022-09-06T22:26:21;24.90;49.00
7970;DHT22;4030;52.362;9.206;2022-09-06T22:28:52;24.80;49.00
7970;DHT22;4030;52.362;9.206;2022-09-06T22:31:19;24.80;49.10